Destinations Ben Gurion International Airport

Ben Gurion International Airport (LLBG / TLV)

Flights to Ben Gurion International Airport

Flight number From ETE Dispatch
SPY-606 EHGG Groningen Airport Eelde 04:25

Flights from Ben Gurion International Airport

Flight number To ETE Dispatch
SPY-607 EHGG Groningen Airport Eelde
About

Ben Gurion International Airport facts

Ben Gurion International Airport is located in Tel-aviv at an elevation of 41.1 meters or 135 feet.

Currently, Speedy Airlines serves 2 flights to and from Ben Gurion International Airport.

Detailed airport info

Route map

Weather

Current weather

METAR

METAR

Metar data retrieved Sunday, 21 July 2024 at 20:25 UTC

LLBG 212020Z 23004KT 9999 FEW015 29/26 Q1006 BECMG SCT010
Wind Temperature
4 kt 29c